createdAt,value
2019-01-30T00:01:33.832Z,99761.95
2019-01-30T00:04:01.038Z,99765.52
2019-01-30T00:06:28.260Z,99767.88
2019-01-30T00:08:55.524Z,99772.89
2019-01-30T00:11:22.752Z,99762.19
2019-01-30T00:13:49.950Z,99764.78
2019-01-30T00:16:17.207Z,99758.11
2019-01-30T00:18:44.416Z,99753.06
2019-01-30T00:21:11.677Z,99758.67
2019-01-30T00:23:38.882Z,99757.93
2019-01-30T00:26:06.335Z,99750.97
2019-01-30T00:28:33.600Z,99746.16
2019-01-30T00:31:00.812Z,99745.12
2019-01-30T00:33:28.271Z,99745.55
2019-01-30T00:35:55.561Z,99740.82
2019-01-30T00:38:22.866Z,99731.75
2019-01-30T00:40:50.116Z,99731.75
2019-01-30T00:43:17.360Z,99732.05
2019-01-30T00:45:44.591Z,99724.88
2019-01-30T00:48:11.814Z,99729.47
2019-01-30T00:50:39.076Z,99726.19
2019-01-30T00:53:06.299Z,99722.70
2019-01-30T00:55:33.571Z,99718.96
2019-01-30T00:58:00.845Z,99714.09
2019-01-30T01:00:28.511Z,99719.52
2019-01-30T01:02:55.839Z,99712.76
2019-01-30T01:05:23.083Z,99715.16
2019-01-30T01:07:50.512Z,99708.03
2019-01-30T01:10:18.072Z,99709.97
2019-01-30T01:12:45.524Z,99714.28
2019-01-30T01:15:13.537Z,99710.39
2019-01-30T01:17:40.737Z,99711.27
2019-01-30T01:20:10.107Z,99710.42
2019-01-30T01:22:37.463Z,99712.75
2019-01-30T01:25:06.503Z,99706.77
2019-01-30T01:27:33.758Z,99704.63
2019-01-30T01:30:01.159Z,99703.15
2019-01-30T01:32:28.439Z,99700.47
2019-01-30T01:34:56.834Z,99707.27
2019-01-30T01:37:24.135Z,99705.33
2019-01-30T01:39:51.374Z,99700.44
2019-01-30T01:42:18.687Z,99695.58
2019-01-30T01:44:45.943Z,99699.80
2019-01-30T01:47:13.263Z,99695.61
2019-01-30T01:49:40.514Z,99693.05
2019-01-30T01:52:07.752Z,99690.36
2019-01-30T01:54:35.006Z,99697.17
2019-01-30T01:57:02.260Z,99686.80
2019-01-30T01:59:29.470Z,99689.75
2019-01-30T02:01:56.694Z,99678.49
2019-01-30T02:04:23.937Z,99684.23
2019-01-30T02:06:51.141Z,99676.34
2019-01-30T02:09:18.353Z,99680.50
2019-01-30T02:11:45.611Z,99676.11
2019-01-30T02:14:12.826Z,99673.75
2019-01-30T02:16:40.047Z,99670.42
2019-01-30T02:19:07.292Z,99679.29
2019-01-30T02:21:34.524Z,99665.17
2019-01-30T02:24:01.861Z,99665.48
2019-01-30T02:26:29.102Z,99676.46
2019-01-30T02:28:56.311Z,99668.69
2019-01-30T02:31:23.579Z,99666.77
2019-01-30T02:33:50.833Z,99666.63
2019-01-30T02:36:18.059Z,99664.80
2019-01-30T02:38:45.276Z,99669.13
2019-01-30T02:41:12.523Z,99667.01
2019-01-30T02:43:39.748Z,99663.86
2019-01-30T02:46:07.140Z,99661.03
2019-01-30T02:48:34.366Z,99661.09
2019-01-30T02:51:01.604Z,99657.02
2019-01-30T02:53:28.857Z,99654.81
2019-01-30T02:55:56.070Z,99656.84
2019-01-30T02:58:23.297Z,99656.28
2019-01-30T03:00:58.798Z,99656.50
2019-01-30T03:03:19.752Z,99654.97
2019-01-30T03:05:46.953Z,99653.11
2019-01-30T03:08:14.191Z,99651.31
2019-01-30T03:10:41.412Z,99644.63
2019-01-30T03:13:08.607Z,99644.70
2019-01-30T03:15:35.869Z,99643.27
2019-01-30T03:18:03.177Z,99646.16
2019-01-30T03:20:30.438Z,99636.83
2019-01-30T03:22:57.668Z,99642.33
2019-01-30T03:25:25.008Z,99644.39
2019-01-30T03:27:52.434Z,99635.41
2019-01-30T03:30:27.730Z,99634.99
2019-01-30T03:32:54.987Z,99636.64
2019-01-30T03:35:22.375Z,99638.45
2019-01-30T03:37:49.631Z,99627.58
2019-01-30T03:40:17.598Z,99629.05
2019-01-30T03:42:44.828Z,99629.79
2019-01-30T03:45:12.897Z,99628.26
2019-01-30T03:47:40.100Z,99623.60
2019-01-30T03:50:08.495Z,99623.43
2019-01-30T03:52:35.816Z,99627.58
2019-01-30T03:55:03.228Z,99625.33
2019-01-30T03:57:30.480Z,99624.84
2019-01-30T03:59:57.696Z,99622.33
2019-01-30T04:02:24.879Z,99620.80
2019-01-30T04:04:52.136Z,99616.66
2019-01-30T04:07:19.343Z,99616.23
2019-01-30T04:09:46.531Z,99616.80
2019-01-30T04:12:13.789Z,99608.23
2019-01-30T04:14:41.056Z,99606.49
2019-01-30T04:17:08.273Z,99609.15
2019-01-30T04:19:35.497Z,99604.67
2019-01-30T04:22:02.773Z,99608.81
2019-01-30T04:24:29.973Z,99610.82
2019-01-30T04:26:57.179Z,99605.19
2019-01-30T04:29:24.453Z,99609.91
2019-01-30T04:31:51.673Z,99603.88
2019-01-30T04:34:18.964Z,99595.60
2019-01-30T04:36:46.203Z,99593.48
2019-01-30T04:39:13.488Z,99594.19
2019-01-30T04:41:40.749Z,99588.92
2019-01-30T04:44:07.944Z,99580.13
2019-01-30T04:46:35.170Z,99583.86
2019-01-30T04:49:02.417Z,99583.03
2019-01-30T04:51:29.617Z,99574.38
2019-01-30T04:53:56.824Z,99569.77
2019-01-30T04:56:24.066Z,99571.15
2019-01-30T04:58:51.273Z,99570.97
2019-01-30T05:01:18.495Z,99570.85
2019-01-30T05:03:45.760Z,99570.49
2019-01-30T05:06:12.963Z,99572.67
2019-01-30T05:08:40.210Z,99575.71
2019-01-30T05:11:07.471Z,99565.67
2019-01-30T05:13:34.701Z,99558.17
2019-01-30T05:16:01.916Z,99567.29
2019-01-30T05:18:29.156Z,99559.52
2019-01-30T05:20:56.364Z,99560.14
2019-01-30T05:23:23.580Z,99564.91
2019-01-30T05:25:50.846Z,99567.44
2019-01-30T05:28:18.064Z,99571.03
2019-01-30T05:30:45.295Z,99564.29
2019-01-30T05:33:12.537Z,99564.38
2019-01-30T05:35:43.179Z,99566.50
2019-01-30T05:38:11.244Z,99566.73
2019-01-30T05:40:38.494Z,99563.08
2019-01-30T05:43:05.699Z,99559.20
2019-01-30T05:45:32.905Z,99561.31
2019-01-30T05:48:00.167Z,99554.05
2019-01-30T05:50:27.389Z,99553.23
2019-01-30T05:52:54.618Z,99552.58
2019-01-30T05:55:21.981Z,99553.23
2019-01-30T05:57:49.218Z,99556.61
2019-01-30T06:00:26.505Z,99550.72
2019-01-30T06:02:53.718Z,99550.95
2019-01-30T06:05:20.944Z,99543.66
2019-01-30T06:07:48.308Z,99553.96
2019-01-30T06:10:15.564Z,99546.45
2019-01-30T06:12:42.787Z,99550.63
2019-01-30T06:15:11.237Z,99554.16
2019-01-30T06:17:38.475Z,99551.98
2019-01-30T06:20:08.212Z,99552.55
2019-01-30T06:22:35.479Z,99553.25
2019-01-30T06:25:02.809Z,99550.48
2019-01-30T06:27:30.021Z,99544.66
2019-01-30T06:29:57.310Z,99556.58
2019-01-30T06:32:24.530Z,99550.52
2019-01-30T06:34:51.901Z,99546.83
2019-01-30T06:37:19.171Z,99547.75
2019-01-30T06:39:46.388Z,99548.22
2019-01-30T06:42:13.632Z,99544.98
2019-01-30T06:44:40.924Z,99547.16
2019-01-30T06:47:08.135Z,99540.36
2019-01-30T06:49:35.343Z,99548.24
2019-01-30T06:52:02.636Z,99538.66
2019-01-30T06:54:29.858Z,99540.16
2019-01-30T06:56:57.079Z,99535.16
2019-01-30T06:59:24.390Z,99540.80
2019-01-30T07:01:51.607Z,99538.48
2019-01-30T07:04:18.813Z,99544.63
2019-01-30T07:06:46.165Z,99542.31
2019-01-30T07:09:13.476Z,99540.45
2019-01-30T07:11:40.714Z,99545.30
2019-01-30T07:14:07.975Z,99541.28
2019-01-30T07:16:35.240Z,99543.40
2019-01-30T07:19:02.440Z,99540.52
2019-01-30T07:21:29.698Z,99537.65
2019-01-30T07:23:56.907Z,99541.75
2019-01-30T07:26:24.149Z,99537.74
2019-01-30T07:28:51.416Z,99534.41
2019-01-30T07:31:19.305Z,99533.77
2019-01-30T07:33:46.636Z,99532.06
2019-01-30T07:36:13.920Z,99536.83
2019-01-30T07:38:41.184Z,99539.27
2019-01-30T07:41:08.393Z,99538.30
2019-01-30T07:43:35.625Z,99537.80
2019-01-30T07:46:03.097Z,99528.64
2019-01-30T07:48:30.401Z,99531.88
2019-01-30T07:50:57.632Z,99529.98
2019-01-30T07:53:24.926Z,99524.94
2019-01-30T07:55:52.143Z,99528.82
2019-01-30T07:58:19.398Z,99526.09
2019-01-30T08:00:46.646Z,99530.17
2019-01-30T08:03:13.970Z,99529.70
2019-01-30T08:05:41.255Z,99528.30
2019-01-30T08:08:08.475Z,99528.67
2019-01-30T08:10:35.706Z,99528.55
2019-01-30T08:13:03.674Z,99524.70
2019-01-30T08:15:30.892Z,99528.19
2019-01-30T08:17:58.116Z,99530.53
2019-01-30T08:20:25.400Z,99526.83
2019-01-30T08:22:52.653Z,99529.73
2019-01-30T08:25:21.887Z,99526.82
2019-01-30T08:27:49.632Z,99538.21
2019-01-30T08:30:23.499Z,99537.56
2019-01-30T08:32:51.400Z,99545.02
2019-01-30T08:35:19.525Z,99553.34
2019-01-30T08:37:46.784Z,99543.53
2019-01-30T08:40:14.199Z,99541.50
2019-01-30T08:42:41.486Z,99550.52
2019-01-30T08:45:20.707Z,99548.44
2019-01-30T08:47:47.979Z,99548.44
2019-01-30T08:50:15.338Z,99549.28
2019-01-30T08:52:42.867Z,99548.11
2019-01-30T08:55:10.364Z,99548.16
2019-01-30T08:57:37.708Z,99546.55
2019-01-30T09:00:07.513Z,99550.11
2019-01-30T09:02:34.792Z,99557.22
2019-01-30T09:05:02.013Z,99557.33
2019-01-30T09:07:29.243Z,99563.98
2019-01-30T09:09:56.518Z,99561.17
2019-01-30T09:12:23.713Z,99565.09
2019-01-30T09:14:50.936Z,99558.50
2019-01-30T09:17:18.220Z,99555.11
2019-01-30T09:19:45.460Z,99555.11
2019-01-30T09:22:12.701Z,99552.67
2019-01-30T09:24:39.974Z,99552.23
2019-01-30T09:27:07.201Z,99549.45
2019-01-30T09:29:34.405Z,99554.20
2019-01-30T09:32:01.711Z,99551.41
2019-01-30T09:34:28.906Z,99556.46
2019-01-30T09:36:56.244Z,99554.25
2019-01-30T09:39:23.473Z,99553.14
2019-01-30T09:41:50.706Z,99557.95
2019-01-30T09:44:17.935Z,99555.94
2019-01-30T09:46:45.200Z,99553.22
2019-01-30T09:49:12.464Z,99558.61
2019-01-30T09:51:39.654Z,99555.75
2019-01-30T09:54:07.066Z,99557.03
2019-01-30T09:56:34.349Z,99555.55
2019-01-30T09:59:01.543Z,99560.34
2019-01-30T10:01:28.794Z,99561.72
2019-01-30T10:03:56.019Z,99567.53
2019-01-30T10:06:23.243Z,99564.78
2019-01-30T10:08:50.521Z,99562.77
2019-01-30T10:11:17.746Z,99567.23
2019-01-30T10:13:44.971Z,99564.14
2019-01-30T10:16:12.239Z,99560.13
2019-01-30T10:18:39.469Z,99562.97
2019-01-30T10:21:06.786Z,99555.59
2019-01-30T10:23:34.051Z,99558.28
2019-01-30T10:26:01.283Z,99560.69
2019-01-30T10:28:28.517Z,99559.63
2019-01-30T10:30:55.790Z,99563.13
2019-01-30T10:33:23.043Z,99562.93
2019-01-30T10:35:50.296Z,99556.45
2019-01-30T10:38:17.584Z,99560.73
2019-01-30T10:40:44.876Z,99559.35
2019-01-30T10:43:12.350Z,99557.50
2019-01-30T10:45:39.571Z,99554.22
2019-01-30T10:48:06.794Z,99553.64
2019-01-30T10:50:34.156Z,99558.17
2019-01-30T10:53:01.365Z,99550.53
2019-01-30T10:55:30.235Z,99552.02
2019-01-30T10:57:59.169Z,99544.57
2019-01-30T11:00:28.907Z,99548.64
2019-01-30T11:02:56.165Z,99542.24
2019-01-30T11:05:24.303Z,99539.92
2019-01-30T11:07:51.615Z,99538.45
2019-01-30T11:10:19.193Z,99536.64
2019-01-30T11:12:46.380Z,99526.06
2019-01-30T11:15:15.745Z,99526.40
2019-01-30T11:17:43.109Z,99524.16
2019-01-30T11:20:12.034Z,99532.40
2019-01-30T11:22:39.266Z,99519.23
2019-01-30T11:25:09.870Z,99518.07
2019-01-30T11:27:37.180Z,99515.96
2019-01-30T11:30:05.585Z,99516.45
2019-01-30T11:32:32.875Z,99508.25
2019-01-30T11:35:00.291Z,99501.67
2019-01-30T11:37:27.533Z,99508.30
2019-01-30T11:39:54.746Z,99499.52
2019-01-30T11:42:21.989Z,99498.22
2019-01-30T11:44:49.304Z,99496.41
2019-01-30T11:47:16.519Z,99495.87
2019-01-30T11:49:43.718Z,99499.90
2019-01-30T11:52:11.084Z,99492.19
2019-01-30T11:54:39.082Z,99495.12
2019-01-30T11:57:06.582Z,99504.33
2019-01-30T11:59:33.801Z,99499.77
2019-01-30T12:02:01.175Z,99490.80
2019-01-30T12:04:28.403Z,99491.02
2019-01-30T12:06:55.631Z,99492.23
2019-01-30T12:09:22.929Z,99487.55
2019-01-30T12:11:50.148Z,99483.44
2019-01-30T12:14:17.396Z,99489.52
2019-01-30T12:16:44.703Z,99484.52
2019-01-30T12:19:12.013Z,99486.12
2019-01-30T12:21:39.257Z,99481.52
2019-01-30T12:24:06.529Z,99486.02
2019-01-30T12:26:33.748Z,99483.26
2019-01-30T12:29:00.960Z,99483.80
2019-01-30T12:31:28.206Z,99484.91
2019-01-30T12:33:55.414Z,99478.59
2019-01-30T12:36:22.714Z,99477.73
2019-01-30T12:38:50.370Z,99480.33
2019-01-30T12:41:17.614Z,99485.28
2019-01-30T12:43:45.381Z,99476.54
2019-01-30T12:46:12.864Z,99486.38
2019-01-30T12:48:40.083Z,99480.86
2019-01-30T12:51:07.300Z,99486.80
2019-01-30T12:53:34.935Z,99480.97
2019-01-30T12:56:03.585Z,99478.34
2019-01-30T12:58:30.854Z,99481.30
2019-01-30T13:00:58.135Z,99474.66
2019-01-30T13:03:25.392Z,99470.92
2019-01-30T13:05:52.609Z,99471.55
2019-01-30T13:08:19.871Z,99471.12
2019-01-30T13:10:47.139Z,99471.79
2019-01-30T13:13:14.402Z,99465.83
2019-01-30T13:15:41.692Z,99462.81
2019-01-30T13:18:18.152Z,99469.58
2019-01-30T13:20:38.052Z,99470.34
2019-01-30T13:23:05.314Z,99472.98
2019-01-30T13:25:33.255Z,99468.70
2019-01-30T13:28:00.515Z,99464.19
2019-01-30T13:30:33.200Z,99462.43
2019-01-30T13:33:00.873Z,99464.48
2019-01-30T13:35:28.368Z,99467.63
2019-01-30T13:37:55.671Z,99464.69
2019-01-30T13:40:25.868Z,99455.66
2019-01-30T13:42:53.260Z,99454.57
2019-01-30T13:45:20.607Z,99461.14
2019-01-30T13:47:47.914Z,99463.65
2019-01-30T13:50:17.734Z,99447.33
2019-01-30T13:52:44.951Z,99453.38
2019-01-30T13:55:12.909Z,99449.59
2019-01-30T13:57:40.280Z,99451.07
2019-01-30T14:00:17.335Z,99444.80
2019-01-30T14:02:44.725Z,99444.72
2019-01-30T14:05:12.096Z,99452.58
2019-01-30T14:07:39.470Z,99457.23
2019-01-30T14:10:06.922Z,99454.73
2019-01-30T14:12:34.199Z,99453.32
2019-01-30T14:15:01.433Z,99450.53
2019-01-30T14:17:28.711Z,99453.03
2019-01-30T14:19:55.966Z,99455.01
2019-01-30T14:22:23.223Z,99453.92
2019-01-30T14:24:50.452Z,99454.05
2019-01-30T14:27:17.715Z,99453.98
2019-01-30T14:29:44.937Z,99453.95
2019-01-30T14:32:14.917Z,99455.02
2019-01-30T14:34:41.355Z,99450.03
2019-01-30T14:37:08.796Z,99450.03
2019-01-30T14:39:36.091Z,99449.50
2019-01-30T14:42:03.463Z,99454.02
2019-01-30T14:44:32.076Z,99452.05
2019-01-30T14:46:59.411Z,99448.70
2019-01-30T14:49:26.629Z,99454.10
2019-01-30T14:51:53.910Z,99454.09
2019-01-30T14:54:21.144Z,99458.04
2019-01-30T14:56:48.413Z,99451.34
2019-01-30T14:59:15.677Z,99456.86
2019-01-30T15:01:42.912Z,99462.69
2019-01-30T15:04:10.218Z,99455.23
2019-01-30T15:06:37.480Z,99454.91
2019-01-30T15:09:08.353Z,99458.41
2019-01-30T15:11:35.602Z,99457.91
2019-01-30T15:14:02.839Z,99460.30
2019-01-30T15:16:30.088Z,99464.48
2019-01-30T15:18:57.332Z,99470.00
2019-01-30T15:21:24.627Z,99467.83
2019-01-30T15:23:51.913Z,99470.55
2019-01-30T15:26:19.177Z,99467.41
2019-01-30T15:28:46.406Z,99466.32
2019-01-30T15:31:13.757Z,99467.20
2019-01-30T15:33:41.176Z,99470.01
2019-01-30T15:36:08.465Z,99465.23
2019-01-30T15:38:35.809Z,99463.44
2019-01-30T15:41:03.336Z,99466.24
2019-01-30T15:43:30.593Z,99466.41
2019-01-30T15:45:57.831Z,99469.47
2019-01-30T15:48:25.107Z,99464.66
2019-01-30T15:50:52.359Z,99465.49
2019-01-30T15:53:21.457Z,99460.21
2019-01-30T15:55:48.895Z,99467.91
2019-01-30T15:58:16.169Z,99471.02
2019-01-30T16:01:14.743Z,99470.84
2019-01-30T16:03:41.968Z,99467.48
2019-01-30T16:06:09.248Z,99473.01
2019-01-30T16:08:36.566Z,99476.56
2019-01-30T16:11:03.942Z,99470.55
2019-01-30T16:13:31.186Z,99472.05
2019-01-30T16:16:00.839Z,99478.41
2019-01-30T16:18:28.294Z,99472.69
2019-01-30T16:20:55.513Z,99478.75
2019-01-30T16:23:22.907Z,99479.02
2019-01-30T16:25:50.130Z,99481.27
2019-01-30T16:28:17.352Z,99478.08
2019-01-30T16:30:44.621Z,99488.14
2019-01-30T16:33:11.873Z,99484.22
2019-01-30T16:35:39.125Z,99484.59
2019-01-30T16:38:06.695Z,99492.65
2019-01-30T16:40:34.005Z,99485.23
2019-01-30T16:43:01.244Z,99488.70
2019-01-30T16:45:28.540Z,99490.42
2019-01-30T16:47:55.749Z,99489.55
2019-01-30T16:50:23.136Z,99494.03
2019-01-30T16:52:50.485Z,99495.39
2019-01-30T16:55:17.899Z,99492.73
2019-01-30T16:57:45.309Z,99495.88
2019-01-30T17:00:16.502Z,99492.59
2019-01-30T17:02:43.730Z,99502.73
2019-01-30T17:05:12.501Z,99505.17
2019-01-30T17:07:39.870Z,99506.72
2019-01-30T17:10:08.431Z,99510.98
2019-01-30T17:12:35.645Z,99508.23
2019-01-30T17:15:03.931Z,99520.33
2019-01-30T17:17:31.138Z,99521.91
2019-01-30T17:19:58.381Z,99514.72
2019-01-30T17:22:25.628Z,99520.58
2019-01-30T17:24:52.839Z,99511.36
2019-01-30T17:27:20.060Z,99513.73
2019-01-30T17:29:47.319Z,99520.36
2019-01-30T17:32:14.575Z,99521.28
2019-01-30T17:34:41.893Z,99519.36
2019-01-30T17:37:09.637Z,99520.02
2019-01-30T17:39:37.064Z,99514.62
2019-01-30T17:42:04.439Z,99516.67
2019-01-30T17:44:31.664Z,99518.59
2019-01-30T17:46:58.940Z,99522.08
2019-01-30T17:49:26.166Z,99521.61
2019-01-30T17:51:54.351Z,99516.13
2019-01-30T17:54:21.640Z,99515.66
2019-01-30T17:56:48.870Z,99511.42
2019-01-30T17:59:16.106Z,99521.44
2019-01-30T18:01:43.376Z,99512.91
2019-01-30T18:04:10.594Z,99509.75
2019-01-30T18:06:37.805Z,99510.83
2019-01-30T18:09:08.092Z,99514.88
2019-01-30T18:11:35.323Z,99512.33
2019-01-30T18:14:02.732Z,99507.26
2019-01-30T18:16:30.005Z,99513.95
2019-01-30T18:18:57.223Z,99506.23
2019-01-30T18:21:24.442Z,99504.59
2019-01-30T18:23:51.710Z,99509.07
2019-01-30T18:26:19.047Z,99503.07
2019-01-30T18:28:47.965Z,99497.11
2019-01-30T18:31:15.501Z,99501.36
2019-01-30T18:33:42.733Z,99496.92
2019-01-30T18:36:09.988Z,99504.83
2019-01-30T18:38:37.268Z,99501.60
2019-01-30T18:41:04.567Z,99500.38
2019-01-30T18:43:34.881Z,99505.47
2019-01-30T18:46:02.118Z,99503.30
2019-01-30T18:48:29.351Z,99501.14
2019-01-30T18:50:57.044Z,99504.81
2019-01-30T18:53:24.405Z,99503.22
2019-01-30T18:55:51.646Z,99504.52
2019-01-30T18:58:18.877Z,99502.00
2019-01-30T19:00:46.133Z,99498.98
2019-01-30T19:03:17.648Z,99491.95
2019-01-30T19:05:44.950Z,99498.16
2019-01-30T19:08:12.680Z,99498.23
2019-01-30T19:10:39.923Z,99503.47
2019-01-30T19:13:07.138Z,99504.97
2019-01-30T19:15:34.383Z,99508.99
2019-01-30T19:18:01.652Z,99504.83
2019-01-30T19:20:31.430Z,99501.90
2019-01-30T19:22:58.770Z,99500.59
2019-01-30T19:25:26.004Z,99500.54
2019-01-30T19:27:56.055Z,99498.23
2019-01-30T19:30:26.902Z,99490.69
2019-01-30T19:32:54.390Z,99503.74
2019-01-30T19:35:21.775Z,99498.13
2019-01-30T19:37:48.995Z,99497.08
2019-01-30T19:40:16.551Z,99502.47
2019-01-30T19:42:43.897Z,99501.65
2019-01-30T19:45:12.561Z,99496.63
2019-01-30T19:47:39.775Z,99491.84
2019-01-30T19:50:19.255Z,99502.19
2019-01-30T19:52:46.568Z,99501.17
2019-01-30T19:55:15.015Z,99494.14
2019-01-30T19:57:42.381Z,99499.13
2019-01-30T20:00:16.417Z,99500.56
2019-01-30T20:02:43.695Z,99503.31
2019-01-30T20:05:11.764Z,99497.75
2019-01-30T20:07:39.294Z,99499.64
2019-01-30T20:10:10.096Z,99490.55
2019-01-30T20:12:37.325Z,99495.03
2019-01-30T20:15:05.839Z,99498.66
2019-01-30T20:17:33.115Z,99495.86
2019-01-30T20:20:00.350Z,99492.42
2019-01-30T20:22:27.597Z,99491.05
2019-01-30T20:24:54.890Z,99496.39
2019-01-30T20:27:22.111Z,99494.73
2019-01-30T20:29:49.342Z,99496.10
2019-01-30T20:32:16.616Z,99494.88
2019-01-30T20:34:43.837Z,99500.62
2019-01-30T20:37:11.046Z,99494.17
2019-01-30T20:39:38.325Z,99497.18
2019-01-30T20:42:05.680Z,99498.06
2019-01-30T20:44:32.920Z,99498.56
2019-01-30T20:47:00.215Z,99500.32
2019-01-30T20:49:27.424Z,99503.80
2019-01-30T20:51:54.673Z,99493.48
2019-01-30T20:54:21.927Z,99498.68
2019-01-30T20:56:49.181Z,99502.16
2019-01-30T20:59:16.435Z,99504.76
2019-01-30T21:01:43.668Z,99504.09
2019-01-30T21:04:10.913Z,99505.81
2019-01-30T21:06:38.196Z,99499.31
2019-01-30T21:09:07.699Z,99505.39
2019-01-30T21:11:34.943Z,99504.64
2019-01-30T21:14:02.203Z,99504.71
2019-01-30T21:16:29.423Z,99502.58
2019-01-30T21:18:56.715Z,99505.17
2019-01-30T21:21:23.978Z,99509.95
2019-01-30T21:23:51.231Z,99508.61
2019-01-30T21:26:18.619Z,99507.35
2019-01-30T21:28:45.863Z,99503.45
2019-01-30T21:31:13.143Z,99511.78
2019-01-30T21:33:40.388Z,99507.05
2019-01-30T21:36:07.610Z,99508.67
2019-01-30T21:38:34.838Z,99512.72
2019-01-30T21:41:02.199Z,99510.66
2019-01-30T21:43:29.542Z,99515.10
2019-01-30T21:45:56.782Z,99513.38
2019-01-30T21:48:25.330Z,99515.10
2019-01-30T21:50:52.605Z,99510.79
2019-01-30T21:53:19.850Z,99511.59
2019-01-30T21:55:47.121Z,99513.27
2019-01-30T21:58:14.582Z,99511.97
2019-01-30T22:00:41.927Z,99514.02
2019-01-30T22:03:09.270Z,99513.60
2019-01-30T22:05:36.491Z,99502.72
2019-01-30T22:08:04.066Z,99506.07
2019-01-30T22:10:31.278Z,99509.09
2019-01-30T22:12:58.537Z,99513.86
2019-01-30T22:15:25.850Z,99509.38
2019-01-30T22:17:53.191Z,99510.30
2019-01-30T22:20:22.135Z,99509.42
2019-01-30T22:22:49.546Z,99510.30
2019-01-30T22:25:20.313Z,99509.00
2019-01-30T22:27:46.966Z,99505.19
2019-01-30T22:30:31.144Z,99501.22
2019-01-30T22:32:58.366Z,99512.52
2019-01-30T22:35:25.747Z,99512.44
2019-01-30T22:37:53.028Z,99505.95
2019-01-30T22:40:20.377Z,99510.30
2019-01-30T22:42:47.725Z,99509.42
2019-01-30T22:45:16.167Z,99509.84
2019-01-30T22:47:43.376Z,99506.78
2019-01-30T22:50:11.331Z,99503.34
2019-01-30T22:52:38.579Z,99511.22
2019-01-30T22:55:07.321Z,99512.91
2019-01-30T22:57:34.591Z,99511.60
2019-01-30T23:00:02.272Z,99513.86
2019-01-30T23:02:29.601Z,99514.77
2019-01-30T23:05:22.662Z,99521.31
2019-01-30T23:08:03.318Z,99522.69
2019-01-30T23:11:02.365Z,99520.09
2019-01-30T23:13:43.493Z,99526.63
2019-01-30T23:17:00.267Z,99519.34
2019-01-30T23:19:47.522Z,99529.31
2019-01-30T23:22:39.943Z,99525.33
2019-01-30T23:25:44.853Z,99521.86
2019-01-30T23:28:53.670Z,99525.00
2019-01-30T23:31:54.479Z,99514.61
2019-01-30T23:34:54.551Z,99517.74
2019-01-30T23:38:07.217Z,99512.63
2019-01-30T23:40:50.662Z,99513.50
2019-01-30T23:43:55.591Z,99509.91
2019-01-30T23:46:49.079Z,99513.38
2019-01-30T23:49:59.374Z,99497.80
2019-01-30T23:53:04.438Z,99500.41
2019-01-30T23:55:45.648Z,99495.00
2019-01-30T23:58:43.315Z,99488.63
